createdAt,value
2023-04-09T00:01:57.668Z,6.82
2023-04-09T00:04:25.276Z,6.74
2023-04-09T00:06:52.967Z,6.64
2023-04-09T00:09:20.912Z,6.57
2023-04-09T00:11:49.924Z,6.50
2023-04-09T00:14:17.548Z,6.41
2023-04-09T00:16:45.229Z,6.35
2023-04-09T00:19:13.528Z,6.28
2023-04-09T00:21:41.202Z,6.21
2023-04-09T00:24:08.875Z,6.15
2023-04-09T00:26:38.087Z,6.09
2023-04-09T00:29:07.125Z,6.03
2023-04-09T00:31:34.822Z,5.97
2023-04-09T00:34:03.602Z,5.91
2023-04-09T00:36:31.585Z,5.84
2023-04-09T00:38:59.196Z,5.77
2023-04-09T00:41:26.824Z,5.70
2023-04-09T00:43:57.282Z,5.63
2023-04-09T00:46:26.651Z,5.56
2023-04-09T00:48:54.872Z,5.51
2023-04-09T00:51:24.276Z,5.43
2023-04-09T00:53:54.071Z,5.37
2023-04-09T00:56:23.238Z,5.30
2023-04-09T00:58:51.346Z,5.25
2023-04-09T01:01:19.290Z,5.20
2023-04-09T01:03:48.568Z,5.16
2023-04-09T01:06:24.895Z,5.12
2023-04-09T01:09:00.198Z,5.07
2023-04-09T01:11:36.812Z,5.04
2023-04-09T01:14:09.596Z,4.98
2023-04-09T01:16:43.121Z,4.94
2023-04-09T01:19:29.235Z,4.89
2023-04-09T01:21:58.825Z,4.83
2023-04-09T01:24:42.557Z,4.80
2023-04-09T01:27:15.086Z,4.76
2023-04-09T01:29:55.753Z,4.69
2023-04-09T01:32:25.015Z,4.64
2023-04-09T01:34:53.704Z,4.61
2023-04-09T01:37:22.996Z,4.54
2023-04-09T01:39:51.168Z,4.52
2023-04-09T01:42:19.332Z,4.47
2023-04-09T01:44:48.088Z,4.44
2023-04-09T01:47:17.287Z,4.40
2023-04-09T01:49:45.710Z,4.36
2023-04-09T01:52:13.727Z,4.33
2023-04-09T01:54:41.498Z,4.28
2023-04-09T01:57:09.101Z,4.25
2023-04-09T01:59:38.453Z,4.21
2023-04-09T02:02:11.584Z,4.18
2023-04-09T02:04:44.786Z,4.15
2023-04-09T02:07:19.665Z,4.12
2023-04-09T02:09:50.253Z,4.11
2023-04-09T02:12:19.665Z,4.06
2023-04-09T02:14:50.093Z,4.03
2023-04-09T02:17:18.197Z,3.99
2023-04-09T02:19:49.067Z,3.95
2023-04-09T02:22:17.813Z,3.92
2023-04-09T02:24:49.293Z,3.89
2023-04-09T02:27:17.541Z,3.87
2023-04-09T02:29:47.092Z,3.85
2023-04-09T02:32:40.283Z,3.81
2023-04-09T02:35:11.106Z,3.78
2023-04-09T02:37:41.177Z,3.76
2023-04-09T02:40:10.895Z,3.77
2023-04-09T02:42:38.419Z,3.74
2023-04-09T02:45:11.096Z,3.73
2023-04-09T02:47:38.832Z,3.71
2023-04-09T02:50:09.891Z,3.69
2023-04-09T02:52:42.127Z,3.68
2023-04-09T02:55:09.845Z,3.66
2023-04-09T02:57:37.499Z,3.63
2023-04-09T03:00:05.871Z,3.60
2023-04-09T03:02:35.641Z,3.55
2023-04-09T03:05:03.427Z,3.53
2023-04-09T03:07:33.844Z,3.49
2023-04-09T03:10:02.391Z,3.46
2023-04-09T03:12:29.984Z,3.44
2023-04-09T03:14:57.653Z,3.41
2023-04-09T03:17:27.063Z,3.38
2023-04-09T03:20:00.105Z,3.34
2023-04-09T03:22:38.507Z,3.30
2023-04-09T03:25:16.083Z,3.26
2023-04-09T03:27:45.311Z,3.22
2023-04-09T03:30:20.082Z,3.19
2023-04-09T03:32:47.748Z,3.15
2023-04-09T03:35:16.093Z,3.14
2023-04-09T03:37:47.207Z,3.12
2023-04-09T03:40:18.792Z,3.10
2023-04-09T03:42:47.237Z,3.04
2023-04-09T03:45:16.998Z,3.03
2023-04-09T03:47:48.130Z,3.00
2023-04-09T03:50:16.641Z,2.97
2023-04-09T03:52:55.889Z,2.95
2023-04-09T03:55:23.907Z,2.93
2023-04-09T03:57:52.521Z,2.90
2023-04-09T04:00:25.250Z,2.88
2023-04-09T04:03:14.632Z,2.85
2023-04-09T04:06:02.843Z,2.82
2023-04-09T04:08:40.107Z,2.80
2023-04-09T04:11:08.500Z,2.77
2023-04-09T04:13:36.179Z,2.75
2023-04-09T04:16:09.659Z,2.74
2023-04-09T04:18:39.743Z,2.71
2023-04-09T04:21:37.715Z,2.68
2023-04-09T04:24:08.249Z,2.64
2023-04-09T04:26:35.906Z,2.62
2023-04-09T04:29:04.192Z,2.60
2023-04-09T04:31:46.153Z,2.55
2023-04-09T04:34:20.181Z,2.52
2023-04-09T04:36:57.079Z,2.48
2023-04-09T04:39:27.123Z,2.45
2023-04-09T04:42:03.113Z,2.41
2023-04-09T04:44:31.199Z,2.37
2023-04-09T04:47:08.591Z,2.34
2023-04-09T04:49:37.187Z,2.32
2023-04-09T04:52:07.506Z,2.31
2023-04-09T04:54:36.905Z,2.28
2023-04-09T04:57:05.076Z,2.27
2023-04-09T04:59:38.522Z,2.23
2023-04-09T05:02:10.397Z,2.23
2023-04-09T05:04:57.096Z,2.22
2023-04-09T05:07:50.292Z,2.19
2023-04-09T05:10:21.142Z,2.18
2023-04-09T05:12:50.304Z,2.17
2023-04-09T05:15:39.345Z,2.18
2023-04-09T05:18:08.398Z,2.13
2023-04-09T05:20:37.376Z,2.11
2023-04-09T05:23:13.091Z,2.11
2023-04-09T05:25:45.564Z,2.09
2023-04-09T05:28:36.966Z,2.07
2023-04-09T05:31:13.458Z,2.07
2023-04-09T05:33:47.588Z,2.07
2023-04-09T05:36:21.161Z,2.07
2023-04-09T05:38:49.080Z,2.10
2023-04-09T05:41:18.879Z,2.12
2023-04-09T05:44:00.802Z,2.15
2023-04-09T05:46:30.077Z,2.20
2023-04-09T05:48:57.745Z,2.25
2023-04-09T05:51:27.297Z,2.29
2023-04-09T05:53:56.857Z,2.33
2023-04-09T05:56:27.105Z,2.38
2023-04-09T06:01:53.161Z,2.48
2023-04-09T06:04:21.107Z,2.56
2023-04-09T06:06:48.784Z,2.63
2023-04-09T06:09:16.361Z,2.74
2023-04-09T06:11:45.293Z,2.82
2023-04-09T06:14:17.064Z,2.89
2023-04-09T06:16:44.663Z,2.98
2023-04-09T06:19:12.891Z,3.09
2023-04-09T06:21:40.890Z,3.16
2023-04-09T06:24:08.524Z,3.27
2023-04-09T06:26:38.066Z,3.40
2023-04-09T06:29:06.939Z,3.55
2023-04-09T06:31:34.620Z,3.72
2023-04-09T06:34:02.479Z,3.87
2023-04-09T06:36:30.328Z,4.02
2023-04-09T06:38:59.032Z,4.17
2023-04-09T06:41:54.087Z,4.40
2023-04-09T06:44:37.064Z,4.56
2023-04-09T06:47:04.664Z,4.69
2023-04-09T06:49:33.108Z,4.78
2023-04-09T06:52:01.237Z,4.87
2023-04-09T06:54:28.786Z,5.02
2023-04-09T06:56:56.850Z,5.12
2023-04-09T06:59:24.752Z,5.21
2023-04-09T07:01:54.697Z,5.32
2023-04-09T07:07:15.098Z,5.61
2023-04-09T07:09:43.538Z,5.73
2023-04-09T07:12:11.103Z,5.81
2023-04-09T07:14:38.802Z,5.89
2023-04-09T07:17:07.672Z,6.01
2023-04-09T07:19:36.079Z,6.11
2023-04-09T07:22:03.794Z,6.19
2023-04-09T07:24:32.524Z,6.30
2023-04-09T07:27:06.320Z,6.38
2023-04-09T07:29:33.929Z,6.61
2023-04-09T07:32:03.366Z,6.89
2023-04-09T07:34:32.275Z,7.18
2023-04-09T07:37:00.465Z,7.47
2023-04-09T07:39:28.312Z,7.74
2023-04-09T07:41:57.079Z,8.04
2023-04-09T07:44:25.385Z,8.30
2023-04-09T07:46:53.516Z,8.57
2023-04-09T07:49:22.952Z,8.87
2023-04-09T07:51:52.021Z,9.13
2023-04-09T07:54:21.052Z,9.38
2023-04-09T07:56:49.065Z,9.59
2023-04-09T07:59:17.348Z,9.86
2023-04-09T08:01:45.288Z,10.13
2023-04-09T08:04:14.377Z,10.27
2023-04-09T08:06:42.183Z,10.38
2023-04-09T08:09:11.061Z,10.54
2023-04-09T08:11:39.536Z,10.68
2023-04-09T08:14:12.724Z,10.90
2023-04-09T08:16:41.342Z,11.05
2023-04-09T08:19:09.016Z,11.23
2023-04-09T08:21:38.769Z,11.33
2023-04-09T08:24:07.504Z,11.49
2023-04-09T08:26:37.187Z,11.65
2023-04-09T08:29:09.372Z,11.81
2023-04-09T08:31:38.309Z,11.78
2023-04-09T08:34:07.157Z,11.94
2023-04-09T08:36:35.663Z,11.83
2023-04-09T08:39:04.291Z,11.91
2023-04-09T08:41:31.935Z,11.94
2023-04-09T08:44:00.858Z,11.98
2023-04-09T08:46:29.116Z,12.16
2023-04-09T08:48:57.065Z,12.23
2023-04-09T08:51:29.703Z,12.26
2023-04-09T08:54:27.192Z,12.45
2023-04-09T08:56:49.033Z,12.51
2023-04-09T08:59:19.311Z,12.57
2023-04-09T09:01:52.565Z,12.75
2023-04-09T09:04:20.697Z,12.87
2023-04-09T09:06:48.288Z,12.76
2023-04-09T09:09:17.512Z,12.87
2023-04-09T09:11:46.877Z,12.96
2023-04-09T09:14:16.504Z,12.94
2023-04-09T09:17:04.543Z,13.12
2023-04-09T09:19:34.792Z,13.26
2023-04-09T09:22:04.212Z,13.01
2023-04-09T09:24:33.858Z,13.07
2023-04-09T09:27:02.403Z,13.08
2023-04-09T09:29:30.131Z,13.12
2023-04-09T09:32:02.109Z,13.39
2023-04-09T09:34:29.704Z,13.33
2023-04-09T09:36:57.473Z,13.38
2023-04-09T09:39:25.035Z,13.57
2023-04-09T09:42:08.712Z,13.73
2023-04-09T09:44:37.204Z,13.54
2023-04-09T09:47:06.670Z,13.63
2023-04-09T09:49:34.209Z,13.60
2023-04-09T09:52:04.145Z,13.60
2023-04-09T09:54:41.582Z,13.64
2023-04-09T09:57:13.205Z,13.82
2023-04-09T09:59:48.563Z,13.84
2023-04-09T10:02:23.880Z,13.58
2023-04-09T10:04:53.215Z,13.58
2023-04-09T10:07:22.543Z,13.50
2023-04-09T10:09:51.893Z,13.59
2023-04-09T10:12:23.726Z,13.55
2023-04-09T10:14:52.743Z,13.57
2023-04-09T10:17:22.053Z,13.63
2023-04-09T10:19:57.182Z,13.55
2023-04-09T10:22:33.151Z,13.60
2023-04-09T10:25:02.091Z,13.71
2023-04-09T10:27:29.652Z,13.84
2023-04-09T10:29:57.236Z,14.00
2023-04-09T10:32:28.327Z,14.16
2023-04-09T10:35:01.073Z,14.13
2023-04-09T10:37:29.835Z,13.99
2023-04-09T10:39:58.549Z,13.92
2023-04-09T10:42:31.371Z,13.83
2023-04-09T10:45:07.531Z,13.77
2023-04-09T10:47:37.789Z,13.86
2023-04-09T10:50:17.093Z,13.82
2023-04-09T10:52:45.176Z,13.71
2023-04-09T10:55:37.975Z,13.60
2023-04-09T10:58:09.735Z,13.57
2023-04-09T11:00:44.104Z,13.75
2023-04-09T11:03:21.666Z,13.83
2023-04-09T11:05:52.809Z,13.98
2023-04-09T11:08:21.955Z,14.00
2023-04-09T11:10:51.967Z,13.94
2023-04-09T11:13:21.868Z,13.89
2023-04-09T11:15:49.629Z,13.77
2023-04-09T11:18:21.438Z,13.77
2023-04-09T11:20:50.259Z,13.76
2023-04-09T11:23:19.091Z,13.66
2023-04-09T11:25:51.105Z,13.62
2023-04-09T11:28:19.304Z,13.53
2023-04-09T11:30:48.107Z,13.54
2023-04-09T11:33:19.931Z,13.49
2023-04-09T11:35:48.277Z,13.43
2023-04-09T11:38:16.038Z,13.41
2023-04-09T11:40:48.275Z,13.51
2023-04-09T11:43:17.596Z,13.72
2023-04-09T11:45:47.549Z,13.79
2023-04-09T11:48:18.068Z,13.90
2023-04-09T11:50:47.926Z,13.91
2023-04-09T11:53:19.829Z,14.10
2023-04-09T11:55:50.681Z,14.14
2023-04-09T11:58:18.465Z,14.20
2023-04-09T12:00:46.644Z,14.19
2023-04-09T12:03:16.828Z,14.23
2023-04-09T12:05:50.625Z,14.18
2023-04-09T12:08:24.551Z,14.07
2023-04-09T12:10:53.905Z,14.07
2023-04-09T12:13:22.775Z,14.05
2023-04-09T12:15:51.374Z,14.09
2023-04-09T12:18:19.103Z,14.23
2023-04-09T12:20:49.584Z,14.18
2023-04-09T12:23:17.599Z,14.12
2023-04-09T12:25:47.575Z,14.06
2023-04-09T12:28:18.148Z,14.09
2023-04-09T12:30:47.127Z,14.13
2023-04-09T12:33:14.863Z,14.04
2023-04-09T12:35:42.449Z,14.23
2023-04-09T12:38:11.388Z,14.19
2023-04-09T12:40:40.723Z,14.30
2023-04-09T12:43:08.281Z,14.40
2023-04-09T12:45:36.513Z,14.38
2023-04-09T12:48:05.036Z,14.49
2023-04-09T12:50:33.266Z,14.73
2023-04-09T12:53:02.221Z,14.65
2023-04-09T12:55:31.105Z,14.68
2023-04-09T12:57:59.034Z,14.66
2023-04-09T13:00:30.723Z,14.77
2023-04-09T13:02:58.857Z,14.94
2023-04-09T13:05:26.493Z,14.79
2023-04-09T13:07:54.030Z,14.85
2023-04-09T13:10:21.648Z,14.77
2023-04-09T13:12:51.336Z,14.71
2023-04-09T13:15:19.718Z,14.64
2023-04-09T13:17:47.296Z,14.46
2023-04-09T13:20:15.960Z,14.26
2023-04-09T13:22:48.531Z,14.22
2023-04-09T13:25:16.407Z,14.28
2023-04-09T13:27:43.999Z,14.24
2023-04-09T13:30:13.461Z,14.24
2023-04-09T13:32:42.157Z,14.09
2023-04-09T13:35:13.123Z,14.07
2023-04-09T13:37:47.124Z,14.03
2023-04-09T13:40:15.121Z,14.12
2023-04-09T13:42:42.680Z,14.09
2023-04-09T13:45:11.088Z,14.16
2023-04-09T13:47:40.266Z,14.24
2023-04-09T13:50:10.161Z,14.32
2023-04-09T13:52:37.788Z,14.35
2023-04-09T13:55:06.437Z,14.24
2023-04-09T13:57:34.139Z,14.22
2023-04-09T14:00:04.603Z,14.21
2023-04-09T14:02:32.747Z,14.19
2023-04-09T14:05:03.599Z,14.14
2023-04-09T14:07:31.219Z,14.21
2023-04-09T14:09:58.893Z,14.17
2023-04-09T14:12:26.679Z,14.28
2023-04-09T14:14:54.228Z,14.29
2023-04-09T14:17:21.796Z,14.30
2023-04-09T14:19:50.120Z,14.13
2023-04-09T14:22:19.071Z,14.16
2023-04-09T14:24:46.613Z,14.22
2023-04-09T14:27:14.185Z,14.19
2023-04-09T14:29:41.946Z,14.13
2023-04-09T14:32:09.655Z,14.14
2023-04-09T14:34:37.529Z,14.23
2023-04-09T14:37:05.479Z,14.12
2023-04-09T14:39:35.508Z,14.06
2023-04-09T14:42:03.106Z,14.09
2023-04-09T14:44:31.544Z,14.17
2023-04-09T14:46:59.840Z,14.12
2023-04-09T14:49:27.647Z,14.11
2023-04-09T14:51:55.292Z,14.19
2023-04-09T14:54:24.522Z,14.23
2023-04-09T14:56:53.478Z,14.07
2023-04-09T14:59:24.626Z,14.12
2023-04-09T15:01:52.812Z,14.00
2023-04-09T15:04:20.701Z,13.98
2023-04-09T15:06:48.380Z,13.94
2023-04-09T15:09:17.623Z,13.92
2023-04-09T15:11:45.404Z,13.93
2023-04-09T15:14:15.141Z,14.02
2023-04-09T15:17:06.949Z,13.97
2023-04-09T15:19:34.572Z,14.00
2023-04-09T15:22:03.227Z,13.95
2023-04-09T15:24:31.140Z,13.91
2023-04-09T15:26:58.701Z,13.87
2023-04-09T15:29:27.745Z,14.00
2023-04-09T15:31:55.379Z,14.09
2023-04-09T15:34:23.293Z,14.11
2023-04-09T15:36:54.812Z,14.10
2023-04-09T15:39:24.305Z,14.07
2023-04-09T15:41:51.941Z,13.98
2023-04-09T15:44:19.583Z,13.99
2023-04-09T15:46:48.586Z,13.93
2023-04-09T15:49:16.348Z,13.86
2023-04-09T15:51:46.125Z,13.81
2023-04-09T15:54:13.706Z,13.84
2023-04-09T15:56:42.138Z,13.78
2023-04-09T15:59:10.942Z,13.76
2023-04-09T16:01:38.909Z,13.72
2023-04-09T16:04:08.957Z,13.71
2023-04-09T16:06:36.580Z,13.69
2023-04-09T16:09:04.208Z,13.69
2023-04-09T16:11:31.896Z,13.67
2023-04-09T16:14:00.117Z,13.63
2023-04-09T16:16:28.800Z,13.69
2023-04-09T16:18:56.983Z,13.71
2023-04-09T16:21:27.572Z,13.73
2023-04-09T16:23:55.891Z,13.66
2023-04-09T16:26:23.576Z,13.69
2023-04-09T16:28:51.488Z,13.71
2023-04-09T16:31:20.242Z,13.60
2023-04-09T16:33:47.809Z,13.62
2023-04-09T16:36:16.337Z,13.52
2023-04-09T16:38:45.258Z,13.50
2023-04-09T16:41:12.946Z,13.46
2023-04-09T16:43:40.488Z,13.39
2023-04-09T16:46:08.652Z,13.35
2023-04-09T16:48:41.406Z,13.32
2023-04-09T16:51:09.332Z,13.29
2023-04-09T16:53:38.816Z,13.28
2023-04-09T16:56:08.974Z,13.24
2023-04-09T16:58:36.619Z,13.24
2023-04-09T17:01:05.173Z,13.17
2023-04-09T17:03:34.313Z,13.14
2023-04-09T17:06:04.337Z,13.16
2023-04-09T17:08:32.909Z,13.14
2023-04-09T17:11:03.007Z,13.06
2023-04-09T17:13:35.138Z,12.97
2023-04-09T17:16:04.261Z,12.95
2023-04-09T17:18:32.307Z,12.88
2023-04-09T17:21:01.146Z,12.86
2023-04-09T17:23:28.764Z,12.80
2023-04-09T17:25:56.863Z,12.80
2023-04-09T17:28:24.451Z,12.75
2023-04-09T17:30:53.442Z,12.71
2023-04-09T17:33:25.151Z,12.64
2023-04-09T17:35:52.827Z,12.60
2023-04-09T17:38:21.616Z,12.54
2023-04-09T17:40:49.368Z,12.48
2023-04-09T17:43:17.469Z,12.42
2023-04-09T17:45:45.147Z,12.37
2023-04-09T17:48:14.660Z,12.33
2023-04-09T17:50:42.368Z,12.28
2023-04-09T17:53:09.905Z,12.23
2023-04-09T17:55:37.611Z,12.18
2023-04-09T17:58:05.140Z,12.11
2023-04-09T18:00:34.200Z,12.04
2023-04-09T18:03:02.046Z,11.99
2023-04-09T18:05:32.114Z,11.90
2023-04-09T18:08:02.005Z,11.84
2023-04-09T18:10:29.783Z,11.78
2023-04-09T18:12:57.396Z,11.72
2023-04-09T18:15:24.989Z,11.66
2023-04-09T18:17:53.189Z,11.61
2023-04-09T18:20:20.952Z,11.53
2023-04-09T18:22:50.724Z,11.48
2023-04-09T18:25:18.315Z,11.41
2023-04-09T18:27:46.088Z,11.36
2023-04-09T18:30:13.947Z,11.28
2023-04-09T18:32:41.943Z,11.21
2023-04-09T18:35:10.586Z,11.14
2023-04-09T18:37:38.217Z,11.06
2023-04-09T18:40:11.870Z,10.98
2023-04-09T18:42:39.563Z,10.91
2023-04-09T18:45:07.882Z,10.81
2023-04-09T18:47:35.737Z,10.74
2023-04-09T18:50:04.274Z,10.65
2023-04-09T18:52:32.213Z,10.55
2023-04-09T18:54:59.941Z,10.47
2023-04-09T18:57:28.984Z,10.38
2023-04-09T18:59:56.744Z,10.31
2023-04-09T19:02:24.444Z,10.24
2023-04-09T19:04:52.604Z,10.18
2023-04-09T19:07:20.510Z,10.09
2023-04-09T19:09:48.652Z,10.01
2023-04-09T19:12:16.220Z,9.94
2023-04-09T19:14:45.351Z,9.86
2023-04-09T19:17:13.584Z,9.78
2023-04-09T19:19:42.684Z,9.69
2023-04-09T19:22:10.286Z,9.61
2023-04-09T19:24:38.267Z,9.54
2023-04-09T19:27:09.649Z,9.46
2023-04-09T19:29:37.385Z,9.36
2023-04-09T19:32:09.149Z,9.26
2023-04-09T19:34:36.885Z,9.17
2023-04-09T19:37:05.289Z,9.07
2023-04-09T19:39:34.132Z,9.00
2023-04-09T19:42:02.688Z,8.92
2023-04-09T19:44:30.561Z,8.84
2023-04-09T19:46:58.230Z,8.78
2023-04-09T19:49:28.539Z,8.70
2023-04-09T19:51:56.121Z,8.64
2023-04-09T19:54:23.777Z,8.54
2023-04-09T19:56:51.460Z,8.47
2023-04-09T19:59:19.135Z,8.39
2023-04-09T20:01:47.922Z,8.32
2023-04-09T20:04:15.702Z,8.23
2023-04-09T20:06:45.637Z,8.16
2023-04-09T20:09:13.634Z,8.09
2023-04-09T20:11:43.294Z,8.01
2023-04-09T20:14:12.011Z,7.94
2023-04-09T20:16:39.759Z,7.90
2023-04-09T20:19:07.328Z,7.84
2023-04-09T20:21:35.031Z,7.79
2023-04-09T20:24:04.582Z,7.75
2023-04-09T20:26:32.624Z,7.71
2023-04-09T20:29:00.253Z,7.66
2023-04-09T20:31:28.491Z,7.61
2023-04-09T20:33:56.241Z,7.55
2023-04-09T20:36:23.776Z,7.50
2023-04-09T20:38:51.686Z,7.44
2023-04-09T20:41:22.263Z,7.40
2023-04-09T20:43:49.991Z,7.33
2023-04-09T20:46:17.634Z,7.26
2023-04-09T20:48:45.347Z,7.20
2023-04-09T20:51:13.188Z,7.15
2023-04-09T20:53:41.287Z,7.09
2023-04-09T20:56:09.894Z,7.03
2023-04-09T20:58:40.119Z,6.96
2023-04-09T21:01:10.367Z,6.91
2023-04-09T21:03:39.117Z,6.84
2023-04-09T21:06:08.087Z,6.78
2023-04-09T21:08:37.145Z,6.73
2023-04-09T21:11:04.919Z,6.66
2023-04-09T21:13:40.517Z,6.63
2023-04-09T21:16:19.934Z,6.57
2023-04-09T21:18:47.768Z,6.53
2023-04-09T21:21:15.510Z,6.49
2023-04-09T21:23:43.120Z,6.43
2023-04-09T21:26:11.751Z,6.41
2023-04-09T21:28:39.291Z,6.36
2023-04-09T21:31:07.230Z,6.32
2023-04-09T21:33:38.915Z,6.29
2023-04-09T21:36:08.072Z,6.25
2023-04-09T21:38:35.892Z,6.21
2023-04-09T21:41:04.296Z,6.15
2023-04-09T21:43:31.934Z,6.11
2023-04-09T21:45:59.833Z,6.08
2023-04-09T21:48:28.116Z,6.05
2023-04-09T21:50:58.452Z,6.01
2023-04-09T21:53:27.252Z,5.97
2023-04-09T21:55:55.163Z,5.93
2023-04-09T21:58:23.136Z,5.89
2023-04-09T22:00:50.680Z,5.86
2023-04-09T22:03:18.478Z,5.83
2023-04-09T22:05:46.205Z,5.81
2023-04-09T22:08:15.895Z,5.76
2023-04-09T22:10:43.540Z,5.72
2023-04-09T22:13:11.136Z,5.69
2023-04-09T22:15:38.736Z,5.67
2023-04-09T22:18:07.199Z,5.65
2023-04-09T22:20:34.730Z,5.62
2023-04-09T22:23:03.319Z,5.59
2023-04-09T22:25:34.940Z,5.56
2023-04-09T22:30:57.967Z,5.49
2023-04-09T22:33:26.411Z,5.48
2023-04-09T22:35:54.735Z,5.47
2023-04-09T22:38:22.944Z,5.47
2023-04-09T22:40:52.055Z,5.45
2023-04-09T22:43:19.761Z,5.44
2023-04-09T22:45:52.174Z,5.41
2023-04-09T22:48:20.973Z,5.40
2023-04-09T22:50:49.352Z,5.38
2023-04-09T22:53:19.645Z,5.35
2023-04-09T22:55:50.189Z,5.31
2023-04-09T22:58:19.438Z,5.31
2023-04-09T23:00:48.309Z,5.29
2023-04-09T23:03:18.303Z,5.28
2023-04-09T23:05:46.190Z,5.30
2023-04-09T23:08:13.857Z,5.30
2023-04-09T23:10:41.671Z,5.29
2023-04-09T23:13:10.088Z,5.30
2023-04-09T23:15:40.115Z,5.29
2023-04-09T23:18:07.759Z,5.27
2023-04-09T23:20:37.167Z,5.25
2023-04-09T23:23:04.866Z,5.22
2023-04-09T23:25:32.469Z,5.19
2023-04-09T23:28:00.280Z,5.16
2023-04-09T23:30:28.171Z,5.12
2023-04-09T23:32:57.786Z,5.09
2023-04-09T23:35:25.492Z,5.07
2023-04-09T23:37:54.637Z,5.04
2023-04-09T23:40:22.219Z,5.03
2023-04-09T23:42:50.228Z,5.01
2023-04-09T23:45:23.105Z,4.98
2023-04-09T23:47:52.381Z,4.95
2023-04-09T23:50:23.067Z,4.92
2023-04-09T23:52:51.425Z,4.88
2023-04-09T23:55:19.859Z,4.85
2023-04-09T23:57:47.439Z,4.83
